UKDR/KWG METAR and TAF weather

Enter ICAO airport designator
Station Type Date Time Source
UKDR METAR 2019/08/23 15:00 UTC NOAA

UKDR 231500Z 36007MPS 330V030 CAVOK 30/15 Q1020 R36/09//70 NOSIG


Station Type Date Time Source
UKDR Decoded METAR 2019/08/23 15:00 UTC NOAA

Station name not available
Aug 23, 2019 - 11:00 AM EDT / 2019.08.23 1500 UTC
Wind: from the N (360 degrees) at 16 MPH (14 KT) (direction variable):0
Visibility: greater than 7 mile(s):0
Temperature: 86 F (30 C)
Dew Point: 59 F (15 C)
Relative Humidity: 40%
Pressure (altimeter): 30.12 in. Hg (1020 hPa)
ob: UKDR 231500Z 36007MPS 330V030 CAVOK 30/15 Q1020 R36/09//70 NOSIG
cycle: 15

Station Type Date Time Source
UKDR TAF 2019/08/23 12:00 UTC NOAA

TAF UKDR 231105Z 2312/2412 03006MPS SCT020 TX33/2312Z TN19/2403Z
TEMPO 2312/2318 05009G14MPS SCT020CB

Example: see airport list